createdAt,value
2023-02-02T00:00:11.954Z,96477.03
2023-02-02T00:02:38.822Z,96469.25
2023-02-02T00:05:05.438Z,96465.94
2023-02-02T00:07:31.846Z,96467.59
2023-02-02T00:09:58.292Z,96457.38
2023-02-02T00:12:24.716Z,96465.00
2023-02-02T00:14:51.157Z,96459.94
2023-02-02T00:17:17.724Z,96454.75
2023-02-02T00:19:46.670Z,96460.78
2023-02-02T00:22:13.207Z,96455.50
2023-02-02T00:24:39.740Z,96454.72
2023-02-02T00:27:06.135Z,96458.16
2023-02-02T00:29:32.716Z,96454.84
2023-02-02T00:31:59.403Z,96468.66
2023-02-02T00:34:26.100Z,96479.00
2023-02-02T00:36:52.833Z,96464.28
2023-02-02T00:39:20.748Z,96469.25
2023-02-02T00:41:47.570Z,96463.31
2023-02-02T00:44:33.566Z,96467.59
2023-02-02T00:46:59.985Z,96450.38
2023-02-02T00:49:26.447Z,96449.56
2023-02-02T00:51:55.445Z,96452.16
2023-02-02T00:54:21.888Z,96441.84
2023-02-02T00:56:48.525Z,96446.91
2023-02-02T00:59:14.976Z,96455.63
2023-02-02T01:01:41.443Z,96458.97
2023-02-02T01:04:08.149Z,96459.13
2023-02-02T01:06:34.978Z,96457.34
2023-02-02T01:09:01.454Z,96458.22
2023-02-02T01:11:27.877Z,96459.94
2023-02-02T01:13:54.316Z,96459.03
2023-02-02T01:16:22.481Z,96456.50
2023-02-02T01:18:49.406Z,96461.63
2023-02-02T01:21:15.874Z,96467.69
2023-02-02T01:23:42.370Z,96473.59
2023-02-02T01:26:10.215Z,96471.00
2023-02-02T01:28:36.762Z,96463.34
2023-02-02T01:31:10.846Z,96473.59
2023-02-02T01:33:37.428Z,96478.75
2023-02-02T01:36:04.889Z,96471.97
2023-02-02T01:38:31.785Z,96477.03
2023-02-02T01:41:00.798Z,96484.75
2023-02-02T01:43:45.671Z,96481.38
2023-02-02T01:46:19.475Z,96479.72
2023-02-02T01:48:56.743Z,96480.47
2023-02-02T01:51:26.540Z,96493.28
2023-02-02T01:53:56.107Z,96473.66
2023-02-02T01:56:26.249Z,96473.63
2023-02-02T01:58:52.964Z,96473.69
2023-02-02T02:01:19.355Z,96462.47
2023-02-02T02:03:45.841Z,96466.78
2023-02-02T02:06:15.123Z,96463.28
2023-02-02T02:08:41.523Z,96452.25
2023-02-02T02:11:08.148Z,96451.31
2023-02-02T02:13:56.587Z,96445.28
2023-02-02T02:16:35.507Z,96453.06
2023-02-02T02:19:11.590Z,96450.47
2023-02-02T02:22:09.106Z,96443.63
2023-02-02T02:25:03.536Z,96442.75
2023-02-02T02:27:51.045Z,96445.31
2023-02-02T02:30:41.178Z,96446.19
2023-02-02T02:33:16.462Z,96449.59
2023-02-02T02:36:02.622Z,96446.16
2023-02-02T02:38:38.025Z,96459.09
2023-02-02T02:41:09.658Z,96460.88
2023-02-02T02:43:40.474Z,96460.00
2023-02-02T02:46:09.235Z,96463.44
2023-02-02T02:48:36.361Z,96457.41
2023-02-02T02:51:06.659Z,96457.31
2023-02-02T02:53:34.762Z,96464.25
2023-02-02T02:56:27.631Z,96461.69
2023-02-02T02:59:17.372Z,96452.22
2023-02-02T03:02:04.086Z,96465.16
2023-02-02T03:04:48.864Z,96464.22
2023-02-02T03:07:23.790Z,96465.09
2023-02-02T03:09:51.730Z,96468.56
2023-02-02T03:12:18.141Z,96467.66
2023-02-02T03:14:44.594Z,96466.88
2023-02-02T03:17:11.075Z,96466.88
2023-02-02T03:19:37.492Z,96477.19
2023-02-02T03:22:03.870Z,96474.56
2023-02-02T03:24:30.704Z,96475.41
2023-02-02T03:26:57.285Z,96473.69
2023-02-02T03:29:23.724Z,96474.59
2023-02-02T03:31:50.349Z,96481.41
2023-02-02T03:34:16.778Z,96484.84
2023-02-02T03:36:43.187Z,96476.28
2023-02-02T03:39:09.575Z,96469.38
2023-02-02T03:41:35.968Z,96471.16
2023-02-02T03:44:02.457Z,96460.84
2023-02-02T03:46:28.920Z,96463.44
2023-02-02T03:48:55.445Z,96462.59
2023-02-02T03:51:21.837Z,96466.81
2023-02-02T03:53:48.452Z,96460.84
2023-02-02T03:56:15.452Z,96474.56
2023-02-02T03:58:42.185Z,96473.69
2023-02-02T04:01:11.188Z,96472.84
2023-02-02T04:03:37.794Z,96475.47
2023-02-02T04:06:04.237Z,96467.72
2023-02-02T04:08:31.527Z,96473.66
2023-02-02T04:10:57.969Z,96483.22
2023-02-02T04:13:24.498Z,96477.13
2023-02-02T04:15:58.554Z,96487.47
2023-02-02T04:18:25.037Z,96484.97
2023-02-02T04:20:55.950Z,96481.47
2023-02-02T04:23:22.483Z,96487.50
2023-02-02T04:25:49.937Z,96489.19
2023-02-02T04:28:16.371Z,96483.06
2023-02-02T04:30:42.953Z,96485.75
2023-02-02T04:33:09.397Z,96479.75
2023-02-02T04:35:35.815Z,96489.16
2023-02-02T04:38:02.241Z,96478.06
2023-02-02T04:40:28.742Z,96484.06
2023-02-02T04:42:56.949Z,96486.66
2023-02-02T04:45:23.722Z,96484.03
2023-02-02T04:47:50.637Z,96486.63
2023-02-02T04:50:17.432Z,96491.75
2023-02-02T04:52:43.810Z,96495.19
2023-02-02T04:55:10.312Z,96488.34
2023-02-02T04:57:36.697Z,96494.34
2023-02-02T05:00:03.540Z,96502.94
2023-02-02T05:02:29.962Z,96508.03
2023-02-02T05:04:56.352Z,96496.06
2023-02-02T05:07:22.776Z,96502.94
2023-02-02T05:09:49.160Z,96488.19
2023-02-02T05:12:15.579Z,96496.88
2023-02-02T05:14:42.241Z,96490.94
2023-02-02T05:17:08.673Z,96484.03
2023-02-02T05:19:35.121Z,96482.31
2023-02-02T05:22:01.572Z,96492.63
2023-02-02T05:24:28.081Z,96496.00
2023-02-02T05:26:58.504Z,96506.38
2023-02-02T05:29:25.577Z,96501.19
2023-02-02T05:31:52.611Z,96506.41
2023-02-02T05:34:19.107Z,96495.22
2023-02-02T05:36:45.496Z,96490.88
2023-02-02T05:39:12.087Z,96497.75
2023-02-02T05:41:38.697Z,96496.97
2023-02-02T05:44:05.105Z,96491.78
2023-02-02T05:46:31.694Z,96498.69
2023-02-02T05:48:59.301Z,96503.81
2023-02-02T05:51:27.686Z,96514.97
2023-02-02T05:53:54.153Z,96510.75
2023-02-02T05:56:20.567Z,96520.16
2023-02-02T05:58:49.886Z,96512.41
2023-02-02T06:01:17.256Z,96508.13
2023-02-02T06:03:43.772Z,96515.00
2023-02-02T06:06:10.468Z,96522.69
2023-02-02T06:08:36.878Z,96529.59
2023-02-02T06:11:10.262Z,96513.28
2023-02-02T06:13:36.635Z,96507.25
2023-02-02T06:16:03.532Z,96523.56
2023-02-02T06:18:30.088Z,96524.44
2023-02-02T06:20:57.527Z,96531.31
2023-02-02T06:23:23.952Z,96528.72
2023-02-02T06:25:50.551Z,96535.59
2023-02-02T06:28:16.940Z,96544.16
2023-02-02T06:30:44.287Z,96541.56
2023-02-02T06:33:10.960Z,96549.31
2023-02-02T06:35:37.363Z,96535.53
2023-02-02T06:38:03.784Z,96542.47
2023-02-02T06:40:30.380Z,96537.31
2023-02-02T06:43:00.830Z,96543.34
2023-02-02T06:45:27.567Z,96551.91
2023-02-02T06:47:54.345Z,96558.81
2023-02-02T06:50:20.788Z,96567.34
2023-02-02T06:52:51.115Z,96567.47
2023-02-02T06:55:18.082Z,96571.69
2023-02-02T06:57:45.039Z,96571.72
2023-02-02T07:00:12.410Z,96578.63
2023-02-02T07:02:39.360Z,96582.88
2023-02-02T07:05:06.077Z,96583.75
2023-02-02T07:07:33.305Z,96576.00
2023-02-02T07:09:59.692Z,96572.63
2023-02-02T07:12:27.032Z,96576.91
2023-02-02T07:14:54.214Z,96571.75
2023-02-02T07:17:20.754Z,96578.63
2023-02-02T07:19:47.191Z,96574.38
2023-02-02T07:22:14.403Z,96576.00
2023-02-02T07:24:40.842Z,96567.44
2023-02-02T07:27:07.257Z,96566.56
2023-02-02T07:29:33.630Z,96555.38
2023-02-02T07:32:00.130Z,96562.19
2023-02-02T07:34:26.669Z,96558.78
2023-02-02T07:36:53.103Z,96558.72
2023-02-02T07:39:19.504Z,96557.03
2023-02-02T07:41:46.013Z,96562.19
2023-02-02T07:44:28.195Z,96563.88
2023-02-02T07:46:54.702Z,96561.25
2023-02-02T07:49:21.251Z,96557.78
2023-02-02T07:51:49.125Z,96562.97
2023-02-02T07:54:15.726Z,96570.72
2023-02-02T07:56:42.159Z,96581.09
2023-02-02T07:59:10.197Z,96577.66
2023-02-02T08:01:36.775Z,96587.16
2023-02-02T08:04:03.559Z,96593.16
2023-02-02T08:06:32.181Z,96587.13
2023-02-02T08:08:59.088Z,96591.47
2023-02-02T08:11:26.109Z,96588.88
2023-02-02T08:13:54.159Z,96595.75
2023-02-02T08:16:21.185Z,96592.31
2023-02-02T08:18:47.759Z,96585.47
2023-02-02T08:21:14.252Z,96592.22
2023-02-02T08:23:41.463Z,96579.38
2023-02-02T08:26:09.457Z,96596.63
2023-02-02T08:28:36.523Z,96606.75
2023-02-02T08:31:07.246Z,96596.66
2023-02-02T08:33:33.840Z,96603.59
2023-02-02T08:36:00.337Z,96607.78
2023-02-02T08:38:26.796Z,96588.03
2023-02-02T08:40:53.219Z,96588.00
2023-02-02T08:43:19.624Z,96585.41
2023-02-02T08:46:03.983Z,96594.94
2023-02-02T08:48:33.383Z,96594.03
2023-02-02T08:51:00.086Z,96594.88
2023-02-02T08:53:28.799Z,96589.00
2023-02-02T08:56:02.533Z,96598.44
2023-02-02T08:58:28.969Z,96607.00
2023-02-02T09:00:55.519Z,96618.19
2023-02-02T09:03:22.174Z,96616.50
2023-02-02T09:05:48.658Z,96628.47
2023-02-02T09:08:15.082Z,96631.16
2023-02-02T09:10:41.532Z,96630.28
2023-02-02T09:13:07.936Z,96633.69
2023-02-02T09:15:34.362Z,96638.75
2023-02-02T09:18:00.728Z,96649.19
2023-02-02T09:20:27.177Z,96650.00
2023-02-02T09:22:55.210Z,96661.94
2023-02-02T09:25:21.722Z,96668.88
2023-02-02T09:27:48.506Z,96664.59
2023-02-02T09:30:14.970Z,96659.53
2023-02-02T09:32:41.562Z,96664.69
2023-02-02T09:35:08.144Z,96666.41
2023-02-02T09:37:35.061Z,96656.88
2023-02-02T09:40:02.991Z,96667.19
2023-02-02T09:42:32.504Z,96672.28
2023-02-02T09:45:06.121Z,96679.16
2023-02-02T09:47:51.304Z,96673.25
2023-02-02T09:50:17.731Z,96685.09
2023-02-02T09:52:46.253Z,96682.63
2023-02-02T09:55:25.085Z,96673.25
2023-02-02T09:57:54.000Z,96680.81
2023-02-02T10:00:23.786Z,96677.34
2023-02-02T10:02:53.036Z,96675.81
2023-02-02T10:05:23.752Z,96686.09
2023-02-02T10:07:53.595Z,96691.25
2023-02-02T10:10:20.144Z,96691.31
2023-02-02T10:12:47.627Z,96692.22
2023-02-02T10:15:30.552Z,96688.75
2023-02-02T10:18:09.780Z,96699.06
2023-02-02T10:20:45.638Z,96688.78
2023-02-02T10:23:18.133Z,96690.47
2023-02-02T10:25:51.378Z,96697.38
2023-02-02T10:28:19.464Z,96679.28
2023-02-02T10:30:47.391Z,96683.66
2023-02-02T10:33:20.342Z,96678.44
2023-02-02T10:35:54.176Z,96676.78
2023-02-02T10:38:47.336Z,96682.84
2023-02-02T10:41:13.719Z,96688.84
2023-02-02T10:43:48.702Z,96693.94
2023-02-02T10:46:34.287Z,96690.53
2023-02-02T10:49:07.175Z,96687.88
2023-02-02T10:51:34.009Z,96672.47
2023-02-02T10:54:05.188Z,96664.72
2023-02-02T10:56:37.766Z,96656.16
2023-02-02T10:59:11.715Z,96668.22
2023-02-02T11:01:38.403Z,96671.63
2023-02-02T11:04:23.301Z,96678.53
2023-02-02T11:06:49.752Z,96688.84
2023-02-02T11:09:21.378Z,96685.38
2023-02-02T11:11:51.376Z,96696.56
2023-02-02T11:14:20.802Z,96693.97
2023-02-02T11:16:59.368Z,96693.97
2023-02-02T11:19:29.590Z,96685.44
2023-02-02T11:21:57.291Z,96692.28
2023-02-02T11:24:23.786Z,96694.03
2023-02-02T11:26:51.692Z,96701.81
2023-02-02T11:29:21.562Z,96696.66
2023-02-02T11:31:47.993Z,96688.88
2023-02-02T11:34:20.663Z,96691.47
2023-02-02T11:37:00.888Z,96688.03
2023-02-02T11:39:27.829Z,96692.31
2023-02-02T11:42:20.473Z,96686.28
2023-02-02T11:44:51.387Z,96694.00
2023-02-02T11:47:24.568Z,96698.38
2023-02-02T11:49:52.312Z,96695.78
2023-02-02T11:52:21.957Z,96695.78
2023-02-02T11:54:50.527Z,96691.53
2023-02-02T11:57:18.514Z,96695.81
2023-02-02T11:59:45.592Z,96682.88
2023-02-02T12:02:24.464Z,96676.91
2023-02-02T12:04:52.378Z,96677.75
2023-02-02T12:07:29.643Z,96676.00
2023-02-02T12:09:58.987Z,96687.09
2023-02-02T12:12:50.354Z,96680.28
2023-02-02T12:15:16.760Z,96679.41
2023-02-02T12:17:47.780Z,96676.91
2023-02-02T12:20:20.336Z,96673.44
2023-02-02T12:23:11.675Z,96674.28
2023-02-02T12:25:50.481Z,96672.56
2023-02-02T12:28:24.851Z,96671.75
2023-02-02T12:30:59.894Z,96681.19
2023-02-02T12:33:29.751Z,96682.84
2023-02-02T12:36:11.815Z,96671.72
2023-02-02T12:38:54.845Z,96671.75
2023-02-02T12:41:26.455Z,96677.78
2023-02-02T12:44:19.286Z,96676.09
2023-02-02T12:47:00.060Z,96677.78
2023-02-02T12:49:32.487Z,96680.34
2023-02-02T12:52:17.804Z,96675.22
2023-02-02T12:54:49.075Z,96676.03
2023-02-02T12:57:34.631Z,96673.44
2023-02-02T13:00:10.178Z,96677.75
2023-02-02T13:02:44.112Z,96678.63
2023-02-02T13:05:23.438Z,96677.75
2023-02-02T13:07:52.720Z,96683.00
2023-02-02T13:10:27.549Z,96676.09
2023-02-02T13:12:57.554Z,96672.63
2023-02-02T13:15:30.028Z,96683.81
2023-02-02T13:17:57.522Z,96681.22
2023-02-02T13:20:28.937Z,96673.47
2023-02-02T13:22:57.245Z,96678.66
2023-02-02T13:25:28.948Z,96668.31
2023-02-02T13:27:56.473Z,96680.31
2023-02-02T13:30:27.297Z,96683.81
2023-02-02T13:32:57.316Z,96683.81
2023-02-02T13:35:27.289Z,96669.97
2023-02-02T13:38:01.764Z,96676.00
2023-02-02T13:40:31.994Z,96676.88
2023-02-02T13:43:06.724Z,96670.03
2023-02-02T13:45:33.113Z,96676.13
2023-02-02T13:48:11.557Z,96680.31
2023-02-02T13:50:44.963Z,96684.69
2023-02-02T13:53:22.164Z,96685.53
2023-02-02T13:56:17.877Z,96699.31
2023-02-02T13:58:53.103Z,96692.44
2023-02-02T14:01:20.096Z,96688.13
2023-02-02T14:03:57.321Z,96704.50
2023-02-02T14:06:25.396Z,96711.34
2023-02-02T14:09:02.639Z,96721.66
2023-02-02T14:11:31.176Z,96721.66
2023-02-02T14:14:33.323Z,96709.63
2023-02-02T14:17:01.793Z,96714.81
2023-02-02T14:19:31.215Z,96720.78
2023-02-02T14:21:59.416Z,96726.00
2023-02-02T14:24:26.082Z,96730.25
2023-02-02T14:26:54.062Z,96730.31
2023-02-02T14:29:32.729Z,96726.88
2023-02-02T14:32:04.504Z,96721.69
2023-02-02T14:34:30.944Z,96722.56
2023-02-02T14:37:16.346Z,96727.63
2023-02-02T14:40:01.802Z,96738.00
2023-02-02T14:42:59.219Z,96737.16
2023-02-02T14:45:28.001Z,96742.34
2023-02-02T14:47:55.927Z,96742.31
2023-02-02T14:50:22.366Z,96742.28
2023-02-02T14:53:21.205Z,96753.47
2023-02-02T14:55:50.898Z,96750.00
2023-02-02T14:58:26.377Z,96754.38
2023-02-02T15:01:05.046Z,96750.94
2023-02-02T15:03:46.832Z,96757.78
2023-02-02T15:06:24.098Z,96759.50
2023-02-02T15:09:09.364Z,96769.00
2023-02-02T15:11:54.790Z,96755.22
2023-02-02T15:14:23.370Z,96765.50
2023-02-02T15:16:49.952Z,96764.72
2023-02-02T15:19:27.495Z,96778.38
2023-02-02T15:21:57.265Z,96775.00
2023-02-02T15:24:26.507Z,96774.88
2023-02-02T15:26:54.617Z,96781.81
2023-02-02T15:29:37.609Z,96772.31
2023-02-02T15:32:05.805Z,96788.72
2023-02-02T15:34:58.601Z,96780.09
2023-02-02T15:37:27.797Z,96762.97
2023-02-02T15:40:00.703Z,96772.31
2023-02-02T15:42:53.147Z,96777.44
2023-02-02T15:45:29.396Z,96774.97
2023-02-02T15:47:57.416Z,96780.16
2023-02-02T15:50:23.957Z,96787.91
2023-02-02T15:52:51.755Z,96787.03
2023-02-02T15:55:23.228Z,96786.13
2023-02-02T15:57:54.237Z,96784.41
2023-02-02T16:00:30.259Z,96786.13
2023-02-02T16:03:14.241Z,96789.50
2023-02-02T16:05:43.580Z,96799.06
2023-02-02T16:08:18.541Z,96794.75
2023-02-02T16:10:46.743Z,96799.84
2023-02-02T16:13:27.448Z,96799.81
2023-02-02T16:15:54.808Z,96804.13
2023-02-02T16:18:21.217Z,96807.56
2023-02-02T16:20:49.215Z,96815.41
2023-02-02T16:23:16.788Z,96818.03
2023-02-02T16:25:48.338Z,96829.25
2023-02-02T16:28:16.928Z,96828.38
2023-02-02T16:30:44.364Z,96826.59
2023-02-02T16:33:46.560Z,96833.47
2023-02-02T16:36:25.239Z,96832.56
2023-02-02T16:38:53.039Z,96840.41
2023-02-02T16:41:26.499Z,96847.25
2023-02-02T16:43:53.212Z,96845.50
2023-02-02T16:46:40.925Z,96843.78
2023-02-02T16:49:14.008Z,96856.75
2023-02-02T16:51:40.454Z,96858.41
2023-02-02T16:54:06.911Z,96866.16
2023-02-02T16:56:38.348Z,96864.34
2023-02-02T16:59:16.863Z,96873.03
2023-02-02T17:01:45.785Z,96885.19
2023-02-02T17:04:21.675Z,96895.38
2023-02-02T17:06:52.804Z,96900.59
2023-02-02T17:09:46.302Z,96900.53
2023-02-02T17:12:30.476Z,96907.38
2023-02-02T17:15:01.582Z,96897.91
2023-02-02T17:17:28.031Z,96909.25
2023-02-02T17:19:54.474Z,96919.66
2023-02-02T17:22:22.578Z,96927.25
2023-02-02T17:24:50.837Z,96935.03
2023-02-02T17:27:23.336Z,96933.34
2023-02-02T17:29:49.840Z,96924.69
2023-02-02T17:32:16.257Z,96932.44
2023-02-02T17:34:42.738Z,96946.28
2023-02-02T17:37:09.305Z,96947.09
2023-02-02T17:39:35.743Z,96938.56
2023-02-02T17:42:02.250Z,96950.63
2023-02-02T17:44:28.741Z,96944.59
2023-02-02T17:46:55.213Z,96949.84
2023-02-02T17:49:21.687Z,96946.31
2023-02-02T17:51:48.270Z,96949.75
2023-02-02T17:54:15.497Z,96957.50
2023-02-02T17:56:42.470Z,96959.22
2023-02-02T17:59:09.417Z,96955.78
2023-02-02T18:01:39.304Z,96960.09
2023-02-02T18:04:06.263Z,96960.03
2023-02-02T18:06:32.811Z,96965.28
2023-02-02T18:08:59.256Z,96955.69
2023-02-02T18:11:25.758Z,96955.78
2023-02-02T18:13:52.457Z,96955.81
2023-02-02T18:16:19.891Z,96960.06
2023-02-02T18:18:46.344Z,96959.19
2023-02-02T18:21:14.160Z,96978.09
2023-02-02T18:23:40.972Z,96969.50
2023-02-02T18:26:11.970Z,96970.41
2023-02-02T18:28:39.208Z,96976.44
2023-02-02T18:31:12.830Z,96972.16
2023-02-02T18:33:41.463Z,96971.16
2023-02-02T18:36:10.566Z,96972.06
2023-02-02T18:38:37.259Z,96975.50
2023-02-02T18:41:04.069Z,96971.22
2023-02-02T18:43:30.503Z,96971.38
2023-02-02T18:46:01.412Z,96965.28
2023-02-02T18:48:28.217Z,96977.28
2023-02-02T18:50:54.791Z,96985.88
2023-02-02T18:53:21.409Z,96977.31
2023-02-02T18:55:47.933Z,96974.53
2023-02-02T18:58:14.726Z,96978.81
2023-02-02T19:00:41.366Z,96977.16
2023-02-02T19:03:08.183Z,96988.41
2023-02-02T19:05:53.351Z,96981.41
2023-02-02T19:08:19.935Z,96985.56
2023-02-02T19:10:46.475Z,96991.63
2023-02-02T19:13:19.149Z,96979.63
2023-02-02T19:15:47.142Z,96980.56
2023-02-02T19:18:15.670Z,96981.28
2023-02-02T19:20:42.687Z,96976.94
2023-02-02T19:23:12.129Z,96968.28
2023-02-02T19:25:45.659Z,96958.19
2023-02-02T19:28:18.804Z,96964.16
2023-02-02T19:30:45.578Z,96964.03
2023-02-02T19:33:12.621Z,96964.00
2023-02-02T19:35:39.336Z,96958.00
2023-02-02T19:38:10.407Z,96957.19
2023-02-02T19:40:38.809Z,96958.91
2023-02-02T19:43:14.445Z,96951.19
2023-02-02T19:45:40.940Z,96953.78
2023-02-02T19:48:18.457Z,96955.47
2023-02-02T19:50:44.988Z,96948.56
2023-02-02T19:53:18.487Z,96951.19
2023-02-02T19:55:44.966Z,96955.41
2023-02-02T19:58:13.851Z,96959.63
2023-02-02T20:00:40.940Z,96967.50
2023-02-02T20:03:11.116Z,96973.47
2023-02-02T20:05:38.949Z,96981.34
2023-02-02T20:08:13.540Z,96983.00
2023-02-02T20:10:43.766Z,96998.38
2023-02-02T20:13:13.534Z,97006.16
2023-02-02T20:15:40.070Z,96996.56
2023-02-02T20:18:19.373Z,97004.59
2023-02-02T20:20:48.609Z,96997.66
2023-02-02T20:23:22.523Z,96996.72
2023-02-02T20:25:49.055Z,97001.78
2023-02-02T20:28:29.601Z,96997.50
2023-02-02T20:30:56.453Z,96988.25
2023-02-02T20:33:23.945Z,96993.28
2023-02-02T20:35:50.428Z,96996.56
2023-02-02T20:38:28.482Z,97000.28
2023-02-02T20:40:55.128Z,96996.69
2023-02-02T20:43:21.674Z,96989.88
2023-02-02T20:45:49.222Z,96987.31
2023-02-02T20:48:15.691Z,96982.91
2023-02-02T20:50:42.180Z,96980.50
2023-02-02T20:53:08.943Z,96966.72
2023-02-02T20:55:36.837Z,96975.94
2023-02-02T20:58:04.090Z,96988.16
2023-02-02T21:00:30.986Z,96983.03
2023-02-02T21:02:57.780Z,96975.28
2023-02-02T21:05:24.743Z,96983.84
2023-02-02T21:07:54.654Z,96986.22
2023-02-02T21:10:25.634Z,96992.38
2023-02-02T21:12:52.482Z,96985.50
2023-02-02T21:15:19.209Z,96987.88
2023-02-02T21:17:45.742Z,96992.22
2023-02-02T21:20:13.103Z,97000.94
2023-02-02T21:22:39.565Z,96991.31
2023-02-02T21:25:06.294Z,97001.56
2023-02-02T21:27:32.772Z,96999.09
2023-02-02T21:29:59.322Z,97002.56
2023-02-02T21:32:25.775Z,97002.69
2023-02-02T21:34:52.238Z,97003.47
2023-02-02T21:37:18.707Z,96999.94
2023-02-02T21:39:49.592Z,97004.25
2023-02-02T21:42:20.601Z,97004.34
2023-02-02T21:44:57.346Z,97001.78
2023-02-02T21:47:37.191Z,96999.94
2023-02-02T21:50:17.720Z,96996.56
2023-02-02T21:52:44.207Z,97000.59
2023-02-02T21:55:29.548Z,96999.22
2023-02-02T21:57:57.222Z,97004.94
2023-02-02T22:00:26.628Z,96995.59
2023-02-02T22:02:54.104Z,97006.00
2023-02-02T22:05:26.370Z,96997.50
2023-02-02T22:07:56.231Z,96994.19
2023-02-02T22:10:22.652Z,96994.03
2023-02-02T22:12:49.084Z,97005.31
2023-02-02T22:15:18.302Z,97008.53
2023-02-02T22:17:46.708Z,97016.41
2023-02-02T22:20:17.359Z,97014.75
2023-02-02T22:22:48.096Z,97024.09
2023-02-02T22:25:17.558Z,97022.38
2023-02-02T22:27:48.688Z,97031.16
2023-02-02T22:30:36.403Z,97029.25
2023-02-02T22:33:03.480Z,97028.31
2023-02-02T22:35:29.960Z,97023.16
2023-02-02T22:37:56.426Z,97023.31
2023-02-02T22:40:23.419Z,97024.09
2023-02-02T22:42:50.736Z,97022.47
2023-02-02T22:45:17.238Z,97016.28
2023-02-02T22:47:47.248Z,97021.56
2023-02-02T22:50:14.955Z,97020.88
2023-02-02T22:52:42.047Z,97017.19
2023-02-02T22:55:08.988Z,97016.28
2023-02-02T22:57:35.512Z,97012.06
2023-02-02T23:00:03.455Z,97026.00
2023-02-02T23:02:29.966Z,97019.03
2023-02-02T23:04:56.438Z,97023.34
2023-02-02T23:07:23.038Z,97019.81
2023-02-02T23:09:49.524Z,97024.19
2023-02-02T23:12:15.969Z,97018.00
2023-02-02T23:14:42.435Z,97022.53
2023-02-02T23:17:08.888Z,97019.69
2023-02-02T23:19:35.398Z,97006.97
2023-02-02T23:22:01.853Z,97009.47
2023-02-02T23:24:28.291Z,97011.19
2023-02-02T23:26:54.735Z,97007.75
2023-02-02T23:29:21.179Z,97006.09
2023-02-02T23:31:47.699Z,96996.56
2023-02-02T23:34:14.161Z,96996.47
2023-02-02T23:36:40.728Z,97002.63
2023-02-02T23:39:07.177Z,97000.72
2023-02-02T23:41:33.636Z,97005.72
2023-02-02T23:44:00.145Z,97009.47
2023-02-02T23:46:26.892Z,97018.94
2023-02-02T23:48:53.990Z,97030.06
2023-02-02T23:51:20.711Z,97029.13
2023-02-02T23:53:47.387Z,97033.44
2023-02-02T23:56:13.879Z,97036.19
2023-02-02T23:58:40.348Z,97033.56
